Time;durP1;ratioP1;P1;durP2;ratioP2;P2;SDS_P1;SDS_P2;PMS_P1;PMS_P2;Temp;Humidity;BMP_temperature;BMP_pressure;BME280_temperature;BME280_humidity;BME280_pressure;Samples;Min_cycle;Max_cycle;Signal;HPM_P1;HPM_P2
2022/10/30 00:01:20;;;;;;;15.60;9.30;;;;;;;13.45;95.71;101511.78;6269972;22;20047;-81
2022/10/30 00:03:45;;;;;;;19.15;10.00;;;;;;;13.48;95.84;101509.91;6270348;22;20006;-81
2022/10/30 00:06:10;;;;;;;13.63;9.27;;;;;;;13.37;95.93;101503.28;6268643;22;20065;-80
2022/10/30 00:08:36;;;;;;;15.15;9.65;;;;;;;13.35;96.31;101510.53;6267950;22;20047;-81
2022/10/30 00:11:06;;;;;;;13.07;9.10;;;;;;;13.32;96.66;101512.50;6269055;22;20087;-81
2022/10/30 00:13:31;;;;;;;15.13;9.32;;;;;;;13.32;96.82;101513.34;6269129;22;20491;-81
2022/10/30 00:15:56;;;;;;;15.73;9.45;;;;;;;13.23;96.68;101511.16;6268889;22;20000;-81
2022/10/30 00:18:22;;;;;;;13.25;10.18;;;;;;;13.26;96.25;101513.69;6267235;22;20014;-81
2022/10/30 00:20:48;;;;;;;19.48;10.65;;;;;;;13.21;97.00;101510.38;6271712;22;20011;-82
2022/10/30 00:23:14;;;;;;;16.13;10.32;;;;;;;13.17;97.30;101511.47;6271769;22;20027;-81
2022/10/30 00:25:39;;;;;;;16.45;10.48;;;;;;;13.15;97.75;101513.34;6271369;22;20307;-81
2022/10/30 00:28:06;;;;;;;13.70;10.15;;;;;;;13.03;97.86;101514.81;6270426;22;20003;-81
2022/10/30 00:30:32;;;;;;;16.10;11.32;;;;;;;13.10;97.75;101526.06;6270280;22;20011;-81
2022/10/30 00:32:57;;;;;;;17.83;10.73;;;;;;;13.07;98.07;101515.53;6271681;22;20003;-82
2022/10/30 00:35:23;;;;;;;13.57;10.30;;;;;;;13.00;98.42;101515.00;6269896;22;20030;-82
2022/10/30 00:37:48;;;;;;;16.35;10.77;;;;;;;13.00;98.35;101503.41;6269292;22;20007;-80
2022/10/30 00:40:15;;;;;;;13.18;11.05;;;;;;;12.89;98.79;101510.16;6276795;22;20010;-81
2022/10/30 00:42:41;;;;;;;14.95;10.65;;;;;;;12.83;98.72;101502.47;6273300;22;20073;-80
2022/10/30 00:45:09;;;;;;;17.73;10.73;;;;;;;12.84;98.75;101504.19;6273468;22;20004;-81
2022/10/30 00:47:39;;;;;;;15.02;10.45;;;;;;;12.86;98.77;101506.78;6272153;22;20023;-81
2022/10/30 00:50:24;;;;;;;16.15;10.23;;;;;;;12.81;98.67;101500.81;6265844;22;20011;-80
2022/10/30 00:53:11;;;;;;;16.58;10.73;;;;;;;12.75;98.05;101512.66;6269605;22;20050;-80
2022/10/30 00:55:40;;;;;;;14.65;10.95;;;;;;;12.68;99.62;101500.56;6269758;22;20011;-81
2022/10/30 00:58:10;;;;;;;15.75;10.85;;;;;;;12.62;99.31;101498.16;6268252;22;20038;-81
2022/10/30 01:00:39;;;;;;;19.02;11.10;;;;;;;12.56;99.65;101493.13;6270464;22;20034;-81
2022/10/30 01:03:05;;;;;;;14.80;11.18;;;;;;;12.54;100.00;101500.34;6272418;22;20008;-81
2022/10/30 01:05:32;;;;;;;16.40;10.93;;;;;;;12.52;100.00;101494.22;6273581;22;20141;-81
2022/10/30 01:07:57;;;;;;;14.27;10.95;;;;;;;12.49;100.00;101497.03;6273017;22;19999;-81
2022/10/30 01:10:23;;;;;;;16.70;10.57;;;;;;;12.51;100.00;101497.84;6273143;22;20426;-80
2022/10/30 01:12:52;;;;;;;16.45;10.60;;;;;;;12.46;100.00;101490.06;6273230;22;20007;-81
2022/10/30 01:15:23;;;;;;;17.38;10.52;;;;;;;12.47;100.00;101494.44;6272738;22;20008;-82
2022/10/30 01:18:01;;;;;;;16.30;11.07;;;;;;;12.42;100.00;101500.00;6272439;22;20326;-81
2022/10/30 01:20:59;;;;;;;16.05;10.57;;;;;;;12.41;100.00;101502.75;6273131;22;20075;-82
2022/10/30 01:23:52;;;;;;;14.95;9.82;;;;;;;12.38;100.00;101506.44;6273678;22;20000;-82
2022/10/30 01:26:49;;;;;;;18.50;11.27;;;;;;;12.34;100.00;101514.66;6272691;22;20003;-81
2022/10/30 01:29:34;;;;;;;16.17;10.82;;;;;;;12.33;100.00;101519.16;6273311;22;20011;-81
2022/10/30 01:32:38;;;;;;;20.20;11.98;;;;;;;12.29;100.00;101519.34;6273762;22;20029;-80
2022/10/30 01:35:16;;;;;;;15.48;11.27;;;;;;;12.28;100.00;101522.94;6206244;23;20005;-81
2022/10/30 01:38:04;;;;;;;16.95;11.15;;;;;;;12.20;100.00;101513.50;6205960;23;20044;-80
2022/10/30 01:40:29;;;;;;;17.08;11.38;;;;;;;12.16;100.00;101509.25;6184967;23;20008;-81
2022/10/30 01:42:56;;;;;;;16.23;10.90;;;;;;;12.18;100.00;101511.84;6205213;23;20012;-81
2022/10/30 01:45:48;;;;;;;16.38;10.55;;;;;;;12.13;100.00;101512.06;6207108;23;20513;-81
2022/10/30 01:48:48;;;;;;;18.50;10.70;;;;;;;12.14;100.00;101520.94;6205747;23;20055;-81
2022/10/30 01:51:23;;;;;;;20.35;12.02;;;;;;;12.11;100.00;101518.41;6207367;23;20020;-81
2022/10/30 01:54:11;;;;;;;14.43;10.93;;;;;;;12.13;100.00;101519.22;6205892;23;20012;-81
2022/10/30 01:57:03;;;;;;;13.75;10.65;;;;;;;12.13;100.00;101513.88;6151690;23;20009;-81
2022/10/30 01:59:31;;;;;;;15.27;11.00;;;;;;;12.13;100.00;101521.88;6207147;23;20083;-81
2022/10/30 02:01:57;;;;;;;19.05;11.40;;;;;;;12.13;100.00;101521.88;6206853;23;20008;-80
2022/10/30 02:04:23;;;;;;;18.40;11.68;;;;;;;12.09;100.00;101521.16;6180262;23;20395;-80
2022/10/30 02:06:50;;;;;;;15.60;11.15;;;;;;;12.12;100.00;101515.69;6264109;22;20010;-80
2022/10/30 02:09:16;;;;;;;16.65;11.70;;;;;;;12.09;100.00;101531.81;6270765;22;20383;-80
2022/10/30 02:11:44;;;;;;;20.30;11.43;;;;;;;12.03;100.00;101529.44;6273372;22;20008;-80
2022/10/30 02:14:11;;;;;;;17.35;10.70;;;;;;;12.05;100.00;101532.03;6272339;22;20486;-82
2022/10/30 02:16:43;;;;;;;17.75;11.65;;;;;;;12.08;100.00;101523.88;6271935;22;20014;-82
2022/10/30 02:19:09;;;;;;;15.38;11.25;;;;;;;12.10;100.00;101530.03;6273857;22;20061;-82
2022/10/30 02:21:34;;;;;;;20.08;11.10;;;;;;;12.08;100.00;101532.78;6273560;22;20011;-81
2022/10/30 02:23:59;;;;;;;17.88;11.80;;;;;;;12.03;100.00;101526.75;6273373;22;20003;-81
2022/10/30 02:26:24;;;;;;;18.65;12.82;;;;;;;12.02;100.00;101513.50;6274921;22;20004;-81
2022/10/30 02:28:50;;;;;;;17.80;11.93;;;;;;;12.00;100.00;101523.34;6270762;22;20246;-82
2022/10/30 02:31:15;;;;;;;15.82;10.88;;;;;;;12.10;100.00;101527.34;6271363;22;20007;-81
2022/10/30 02:33:48;;;;;;;17.80;11.10;;;;;;;12.11;100.00;101534.41;6271648;22;20000;-81
2022/10/30 02:36:16;;;;;;;18.00;10.90;;;;;;;12.05;100.00;101530.25;6272398;22;20000;-81
2022/10/30 02:38:42;;;;;;;15.63;10.18;;;;;;;12.04;100.00;101530.28;6272583;22;20173;-81
2022/10/30 02:41:08;;;;;;;18.83;10.00;;;;;;;12.09;100.00;101538.97;6272304;22;20004;-81
2022/10/30 02:43:33;;;;;;;16.15;10.02;;;;;;;12.08;100.00;101537.22;6272235;22;19994;-81
2022/10/30 02:45:59;;;;;;;15.07;11.05;;;;;;;12.10;100.00;101530.88;6271223;22;20003;-80
2022/10/30 02:48:24;;;;;;;16.00;11.10;;;;;;;12.05;100.00;101534.72;6271531;22;20004;-80
2022/10/30 02:50:49;;;;;;;14.82;10.50;;;;;;;11.99;100.00;101535.84;6271259;22;20003;-80
2022/10/30 02:53:15;;;;;;;15.15;11.02;;;;;;;11.98;100.00;101536.78;6271231;22;19999;-81
2022/10/30 02:55:40;;;;;;;16.02;11.35;;;;;;;11.88;100.00;101536.34;6272921;22;20467;-81
2022/10/30 02:58:05;;;;;;;18.48;11.43;;;;;;;11.88;100.00;101547.00;6274123;22;20111;-81
2022/10/30 03:00:31;;;;;;;18.35;11.45;;;;;;;11.86;100.00;101542.66;6272535;22;20024;-81
2022/10/30 03:02:57;;;;;;;16.05;11.20;;;;;;;11.79;100.00;101534.06;6271740;22;20007;-82
2022/10/30 03:05:23;;;;;;;15.82;11.70;;;;;;;11.80;100.00;101543.78;6270676;22;20015;-82
2022/10/30 03:07:50;;;;;;;17.02;11.50;;;;;;;11.75;100.00;101540.47;6271931;22;20540;-80
2022/10/30 03:10:16;;;;;;;15.27;10.35;;;;;;;11.71;100.00;101529.06;6268680;22;20004;-81
2022/10/30 03:12:41;;;;;;;17.45;10.93;;;;;;;11.65;100.00;101531.13;6269889;22;20008;-81
2022/10/30 03:15:07;;;;;;;14.48;10.50;;;;;;;11.64;100.00;101526.75;6268669;22;20035;-81
2022/10/30 03:17:32;;;;;;;16.40;11.35;;;;;;;11.61;100.00;101530.41;6269249;22;20010;-81
2022/10/30 03:19:58;;;;;;;15.60;10.90;;;;;;;11.61;100.00;101538.41;6269478;22;20052;-80
2022/10/30 03:22:23;;;;;;;16.65;10.88;;;;;;;11.57;100.00;101531.47;6268908;22;20074;-81
2022/10/30 03:24:48;;;;;;;16.67;10.40;;;;;;;11.59;100.00;101528.75;6269273;22;20421;-81
2022/10/30 03:27:13;;;;;;;17.65;10.63;;;;;;;11.61;100.00;101542.88;6272092;22;20057;-81
2022/10/30 03:29:39;;;;;;;16.40;10.90;;;;;;;11.68;100.00;101536.34;6271320;22;20396;-80
2022/10/30 03:32:08;;;;;;;17.13;10.90;;;;;;;11.62;100.00;101541.91;6271451;22;20012;-81
2022/10/30 03:34:33;;;;;;;16.88;10.65;;;;;;;11.63;100.00;101543.69;6272143;22;20065;-81
2022/10/30 03:36:59;;;;;;;15.70;11.25;;;;;;;11.64;100.00;101535.59;6269167;22;20004;-80
2022/10/30 03:39:24;;;;;;;14.75;11.07;;;;;;;11.66;100.00;101531.09;6270505;22;19999;-79
2022/10/30 03:41:49;;;;;;;16.60;11.18;;;;;;;11.66;100.00;101527.53;6272278;22;20011;-81
2022/10/30 03:44:14;;;;;;;15.40;10.77;;;;;;;11.67;100.00;101523.94;6270101;22;20038;-80
2022/10/30 03:46:40;;;;;;;16.67;11.98;;;;;;;11.66;100.00;101522.19;6271922;22;20138;-81
2022/10/30 03:49:05;;;;;;;16.20;11.98;;;;;;;11.70;100.00;101523.78;6272593;22;20003;-81
2022/10/30 03:51:30;;;;;;;18.30;11.93;;;;;;;11.81;100.00;101532.19;6272315;22;20004;-81
2022/10/30 03:53:55;;;;;;;15.65;10.73;;;;;;;11.85;100.00;101525.81;6272650;22;20325;-81
2022/10/30 03:56:21;;;;;;;16.30;11.27;;;;;;;11.83;100.00;101514.34;6269500;22;20073;-80
2022/10/30 03:58:46;;;;;;;16.88;11.65;;;;;;;11.91;100.00;101525.53;6269903;22;20425;-80
2022/10/30 04:01:11;;;;;;;14.57;11.30;;;;;;;11.91;100.00;101524.66;6269215;22;20021;-80
2022/10/30 04:03:37;;;;;;;19.92;11.48;;;;;;;11.91;100.00;101530.88;6271291;22;20007;-80
2022/10/30 04:06:02;;;;;;;18.73;10.65;;;;;;;11.91;100.00;101538.00;6269752;22;20007;-80
2022/10/30 04:08:27;;;;;;;19.38;10.68;;;;;;;11.89;100.00;101519.41;6270589;22;20425;-81
2022/10/30 04:10:53;;;;;;;17.33;11.18;;;;;;;11.89;100.00;101519.41;6266794;22;20422;-81
2022/10/30 04:13:21;;;;;;;17.25;11.48;;;;;;;11.90;100.00;101530.94;6266790;22;20004;-81
2022/10/30 04:15:48;;;;;;;14.65;11.45;;;;;;;11.85;100.00;101532.94;6266413;22;20030;-82
2022/10/30 04:18:15;;;;;;;22.38;12.50;;;;;;;11.78;100.00;101534.13;6268123;22;19996;-81
2022/10/30 04:20:41;;;;;;;16.67;9.90;;;;;;;11.75;100.00;101551.13;6271717;22;20015;-81
2022/10/30 04:23:09;;;;;;;18.70;10.35;;;;;;;11.71;100.00;101546.88;6268921;22;20076;-82
2022/10/30 04:25:35;;;;;;;13.23;9.77;;;;;;;11.64;100.00;101537.41;6267858;22;20038;-81
2022/10/30 04:28:00;;;;;;;16.15;10.00;;;;;;;11.65;100.00;101540.00;6267012;22;19999;-81
2022/10/30 04:30:26;;;;;;;14.35;10.05;;;;;;;11.64;100.00;101540.06;6266961;22;20011;-82
2022/10/30 04:32:56;;;;;;;17.15;10.18;;;;;;;11.61;100.00;101537.53;6270410;22;20367;-81
2022/10/30 04:35:23;;;;;;;17.45;10.48;;;;;;;11.55;100.00;101532.47;6270476;22;20007;-81
2022/10/30 04:37:56;;;;;;;14.65;10.13;;;;;;;11.56;100.00;101537.75;6271576;22;20014;-79
2022/10/30 04:40:23;;;;;;;15.30;10.23;;;;;;;11.50;100.00;101537.16;6272112;22;20504;-80
2022/10/30 04:42:48;;;;;;;15.48;10.10;;;;;;;11.48;100.00;101540.72;6272217;22;20008;-80
2022/10/30 04:45:14;;;;;;;18.05;10.55;;;;;;;11.47;100.00;101540.81;6271249;22;20358;-81
2022/10/30 04:47:39;;;;;;;15.40;9.95;;;;;;;11.44;100.00;101539.13;6272640;22;20566;-81
2022/10/30 04:50:05;;;;;;;17.08;10.63;;;;;;;11.39;100.00;101529.63;6271606;22;20337;-80
2022/10/30 04:52:31;;;;;;;14.10;9.98;;;;;;;11.43;100.00;101532.06;6271394;22;20003;-80
2022/10/30 04:54:56;;;;;;;14.85;10.10;;;;;;;11.39;100.00;101529.63;6271041;22;20441;-81
2022/10/30 04:57:22;;;;;;;14.27;9.75;;;;;;;11.40;100.00;101534.00;6272014;22;20083;-81
2022/10/30 04:59:47;;;;;;;15.30;9.93;;;;;;;11.34;100.00;101521.81;6269907;22;20038;-80
2022/10/30 05:02:12;;;;;;;15.13;9.93;;;;;;;11.37;100.00;101512.81;6269698;22;20055;-81
2022/10/30 05:04:38;;;;;;;15.88;10.05;;;;;;;11.35;100.00;101510.22;6271011;22;20011;-81
2022/10/30 05:07:03;;;;;;;13.85;10.35;;;;;;;11.34;100.00;101503.16;6272433;22;20000;-81
2022/10/30 05:09:29;;;;;;;16.13;11.00;;;;;;;11.27;100.00;101496.34;6272505;22;20068;-81
2022/10/30 05:11:54;;;;;;;16.08;10.52;;;;;;;11.28;100.00;101502.56;6275910;22;20011;-82
2022/10/30 05:14:19;;;;;;;16.73;10.18;;;;;;;11.27;100.00;101507.00;6282803;22;20011;-82
2022/10/30 05:16:45;;;;;;;16.60;10.63;;;;;;;11.27;100.00;101504.34;6277584;22;20414;-81
2022/10/30 05:19:10;;;;;;;17.38;10.82;;;;;;;11.26;100.00;101502.63;6275748;22;20026;-82
2022/10/30 05:21:35;;;;;;;16.80;10.35;;;;;;;11.26;100.00;101510.63;6272783;22;20041;-82
2022/10/30 05:24:01;;;;;;;14.95;10.25;;;;;;;11.25;100.00;101511.56;6270891;22;20010;-82
2022/10/30 05:26:26;;;;;;;15.20;10.88;;;;;;;11.22;100.00;101503.69;6271013;22;20008;-81
2022/10/30 05:28:51;;;;;;;15.57;10.73;;;;;;;11.18;100.00;101507.41;6269809;22;20018;-81
2022/10/30 05:31:17;;;;;;;15.75;10.77;;;;;;;11.15;100.00;101496.88;6269288;22;20012;-81
2022/10/30 05:33:42;;;;;;;15.77;11.30;;;;;;;11.11;100.00;101506.81;6270480;22;20003;-81
2022/10/30 05:36:07;;;;;;;16.58;11.27;;;;;;;11.11;100.00;101516.59;6268932;22;20003;-80
2022/10/30 05:38:33;;;;;;;16.00;10.85;;;;;;;11.07;100.00;101510.53;6269399;22;20424;-80
2022/10/30 05:40:58;;;;;;;14.73;10.45;;;;;;;11.01;100.00;101515.25;6268893;22;20076;-81
2022/10/30 05:43:23;;;;;;;15.18;10.23;;;;;;;10.87;100.00;101511.38;6270422;22;20000;-80
2022/10/30 05:45:49;;;;;;;11.90;9.98;;;;;;;10.89;100.00;101522.81;6269518;22;20499;-81
2022/10/30 05:48:14;;;;;;;13.90;10.23;;;;;;;10.83;100.00;101517.75;6269763;22;20000;-81
2022/10/30 05:50:40;;;;;;;18.05;11.45;;;;;;;10.76;100.00;101507.44;6271498;22;20440;-81
2022/10/30 05:53:05;;;;;;;16.55;10.70;;;;;;;10.72;100.00;101501.34;6271532;22;20000;-81
2022/10/30 05:55:31;;;;;;;15.38;11.25;;;;;;;10.66;100.00;101507.81;6267862;22;20000;-80
2022/10/30 05:57:58;;;;;;;17.77;10.73;;;;;;;10.64;100.00;101519.44;6271674;22;20000;-81
2022/10/30 06:00:25;;;;;;;14.98;11.10;;;;;;;10.53;100.00;101513.66;6270796;22;20016;-81
2022/10/30 06:02:50;;;;;;;15.35;10.13;;;;;;;10.47;100.00;101512.97;6271113;22;20027;-81
2022/10/30 06:05:16;;;;;;;14.38;10.65;;;;;;;10.56;100.00;101517.06;6270684;22;20006;-80
2022/10/30 06:07:41;;;;;;;14.40;10.73;;;;;;;10.53;100.00;101511.00;6271854;22;20004;-80
2022/10/30 06:10:06;;;;;;;14.13;10.90;;;;;;;10.44;100.00;101501.59;6270191;22;20003;-81
2022/10/30 06:12:32;;;;;;;16.00;10.90;;;;;;;10.51;100.00;101510.22;6272422;22;20007;-81
2022/10/30 06:14:57;;;;;;;16.85;11.52;;;;;;;10.45;100.00;101514.84;6272799;22;20008;-80
2022/10/30 06:17:22;;;;;;;16.42;10.90;;;;;;;10.44;100.00;101513.09;6275831;22;20503;-80
2022/10/30 06:19:47;;;;;;;17.50;11.57;;;;;;;10.37;100.00;101511.63;6274949;22;20437;-81
2022/10/30 06:22:13;;;;;;;15.20;11.10;;;;;;;10.34;100.00;101522.38;6271620;22;20007;-81
2022/10/30 06:24:38;;;;;;;14.38;10.82;;;;;;;10.34;100.00;101513.53;6270871;22;20007;-81
2022/10/30 06:27:03;;;;;;;15.23;11.15;;;;;;;10.31;100.00;101508.31;6271273;22;20087;-80
2022/10/30 06:29:29;;;;;;;19.10;10.90;;;;;;;10.32;100.00;101518.03;6271821;22;20054;-80
2022/10/30 06:31:54;;;;;;;16.95;10.85;;;;;;;10.28;100.00;101508.44;6272346;22;20445;-82
2022/10/30 06:34:19;;;;;;;14.80;11.15;;;;;;;10.35;100.00;101513.47;6269924;22;20018;-81
2022/10/30 06:36:44;;;;;;;16.48;10.75;;;;;;;10.31;100.00;101521.63;6272211;22;20080;-81
2022/10/30 06:39:10;;;;;;;14.95;10.98;;;;;;;10.32;100.00;101513.56;6273343;22;20303;-82
2022/10/30 06:41:35;;;;;;;16.10;10.55;;;;;;;10.29;100.00;101512.84;6271546;22;20426;-81
2022/10/30 06:44:00;;;;;;;19.67;12.18;;;;;;;10.32;100.00;101502.06;6270775;22;20006;-81
2022/10/30 06:46:25;;;;;;;19.77;12.40;;;;;;;10.31;100.00;101501.22;6273094;22;20036;-82
2022/10/30 06:48:51;;;;;;;16.58;11.40;;;;;;;10.28;100.00;101496.00;6268255;22;20061;-80
2022/10/30 06:51:17;;;;;;;16.15;11.30;;;;;;;10.30;100.00;101496.81;6269268;22;20056;-79
2022/10/30 06:53:42;;;;;;;15.85;11.40;;;;;;;10.34;100.00;101505.56;6268775;22;20430;-83
2022/10/30 06:56:08;;;;;;;18.40;11.95;;;;;;;10.35;100.00;101493.97;6270169;22;20421;-82
2022/10/30 06:58:37;;;;;;;17.20;11.68;;;;;;;10.36;100.00;101501.88;6271157;22;20405;-82
2022/10/30 07:01:04;;;;;;;19.52;11.60;;;;;;;10.40;100.00;101502.63;6269390;22;20349;-81
2022/10/30 07:03:29;;;;;;;18.42;11.07;;;;;;;10.42;100.00;101514.09;6271060;22;20011;-82
2022/10/30 07:05:54;;;;;;;16.92;12.40;;;;;;;10.41;100.00;101493.75;6272877;22;19999;-84
2022/10/30 07:08:19;;;;;;;15.95;11.35;;;;;;;10.39;100.00;101504.44;6272105;22;20446;-83
2022/10/30 07:10:45;;;;;;;15.75;12.85;;;;;;;10.47;100.00;101498.81;6274142;22;20011;-83
2022/10/30 07:13:10;;;;;;;15.02;11.65;;;;;;;10.47;100.00;101491.69;6272282;22;20000;-83
2022/10/30 07:15:35;;;;;;;17.42;11.85;;;;;;;10.47;100.00;101490.84;6271656;22;20027;-81
2022/10/30 07:18:01;;;;;;;18.50;11.40;;;;;;;10.54;100.00;101502.09;6271523;22;20010;-83
2022/10/30 07:20:29;;;;;;;16.05;11.13;;;;;;;10.60;100.00;101507.19;6270556;22;20063;-81
2022/10/30 07:22:54;;;;;;;17.90;11.15;;;;;;;10.61;100.00;101503.56;6268308;22;20057;-83
2022/10/30 07:25:20;;;;;;;18.42;11.05;;;;;;;10.68;100.00;101499.75;6266853;22;20015;-81
2022/10/30 07:27:47;;;;;;;18.88;11.80;;;;;;;10.69;100.00;101501.47;6268226;22;20075;-82
2022/10/30 07:30:15;;;;;;;22.25;11.55;;;;;;;10.74;100.00;101504.81;6269931;22;20000;-82
2022/10/30 07:32:40;;;;;;;20.55;11.63;;;;;;;10.79;100.00;101496.66;6271989;22;20006;-82
2022/10/30 07:35:07;;;;;;;16.65;11.55;;;;;;;10.87;100.00;101503.41;6269758;22;20008;-81
2022/10/30 07:37:32;;;;;;;18.73;12.48;;;;;;;10.94;100.00;101504.84;6269851;22;20139;-80
2022/10/30 07:39:58;;;;;;;16.77;12.30;;;;;;;10.99;100.00;101509.97;6270735;22;20027;-80
2022/10/30 07:42:23;;;;;;;17.52;12.20;;;;;;;11.05;100.00;101506.22;6269781;22;20018;-81
2022/10/30 07:44:48;;;;;;;19.20;11.82;;;;;;;11.11;100.00;101503.28;6268979;22;20007;-80
2022/10/30 07:47:13;;;;;;;15.68;12.40;;;;;;;11.13;100.00;101493.44;6271729;22;20097;-80
2022/10/30 07:49:39;;;;;;;21.83;13.00;;;;;;;11.21;100.00;101496.63;6269306;22;20015;-80
2022/10/30 07:52:04;;;;;;;20.23;12.75;;;;;;;11.26;100.00;101497.28;6269234;22;20008;-81
2022/10/30 07:54:30;;;;;;;17.77;13.02;;;;;;;11.31;100.00;101502.44;6271055;22;20004;-80
2022/10/30 07:56:56;;;;;;;14.52;12.63;;;;;;;11.40;100.00;101513.53;6271614;22;20009;-81
2022/10/30 07:59:21;;;;;;;17.38;12.25;;;;;;;11.41;100.00;101498.41;6270851;22;20019;-80
2022/10/30 08:01:48;;;;;;;19.52;14.07;;;;;;;11.46;100.00;101505.28;6273706;22;20047;-81
2022/10/30 08:04:13;;;;;;;21.05;13.55;;;;;;;11.54;100.00;101501.44;6269543;22;20012;-81
2022/10/30 08:06:39;;;;;;;19.70;13.35;;;;;;;11.63;100.00;101496.53;6270215;22;20083;-80
2022/10/30 08:09:04;;;;;;;20.15;14.18;;;;;;;11.72;100.00;101488.13;6269960;22;20086;-80
2022/10/30 08:11:30;;;;;;;22.33;13.48;;;;;;;11.79;100.00;101490.50;6269673;22;20417;-81
2022/10/30 08:13:55;;;;;;;23.27;14.02;;;;;;;11.82;100.00;101491.22;6266465;22;20073;-80
2022/10/30 08:16:20;;;;;;;18.48;13.65;;;;;;;11.86;100.00;101495.53;6270446;22;20334;-81
2022/10/30 08:18:46;;;;;;;17.75;12.75;;;;;;;11.91;100.00;101490.88;6270134;22;20078;-81
2022/10/30 08:21:11;;;;;;;22.13;13.95;;;;;;;11.97;100.00;101489.72;6268004;22;20050;-81
2022/10/30 08:23:37;;;;;;;20.23;13.73;;;;;;;11.98;100.00;101498.56;6266947;22;20015;-79
2022/10/30 08:26:02;;;;;;;19.50;15.48;;;;;;;12.02;100.00;101489.50;6267455;22;20003;-79
2022/10/30 08:28:28;;;;;;;21.00;15.07;;;;;;;12.13;100.00;101485.38;6268557;22;20006;-80
2022/10/30 08:30:53;;;;;;;19.35;14.13;;;;;;;12.22;100.00;101484.09;6267694;22;20086;-80
2022/10/30 08:33:19;;;;;;;20.60;14.50;;;;;;;12.32;100.00;101487.16;6266502;22;20011;-80
2022/10/30 08:35:52;;;;;;;19.23;13.57;;;;;;;12.39;100.00;101493.97;6269149;22;20004;-80
2022/10/30 08:38:18;;;;;;;23.50;14.32;;;;;;;12.50;100.00;101504.09;6268783;22;19995;-81
2022/10/30 08:40:44;;;;;;;21.15;14.32;;;;;;;12.61;100.00;101502.66;6268261;22;20003;-80
2022/10/30 08:43:10;;;;;;;19.40;14.63;;;;;;;12.70;100.00;101502.19;6269092;22;20042;-81
2022/10/30 08:45:35;;;;;;;21.95;14.13;;;;;;;12.84;100.00;101489.97;6269620;22;20143;-80
2022/10/30 08:48:03;;;;;;;21.83;14.60;;;;;;;12.91;100.00;101486.03;6269468;22;20306;-81
2022/10/30 08:50:29;;;;;;;20.08;13.90;;;;;;;13.08;100.00;101479.84;6266296;22;20377;-81
2022/10/30 08:52:55;;;;;;;19.52;14.18;;;;;;;13.09;100.00;101489.59;6269304;22;20000;-81
2022/10/30 08:55:20;;;;;;;19.70;13.63;;;;;;;13.16;100.00;101488.31;6268565;22;19999;-81
2022/10/30 08:57:46;;;;;;;20.83;12.90;;;;;;;13.21;100.00;101489.84;6267548;22;19996;-81
2022/10/30 09:00:11;;;;;;;19.02;14.05;;;;;;;13.25;100.00;101495.03;6272396;22;20045;-81
2022/10/30 09:02:40;;;;;;;23.33;14.85;;;;;;;13.30;100.00;101487.66;6278659;22;20038;-80
2022/10/30 09:05:06;;;;;;;19.35;13.77;;;;;;;13.41;100.00;101494.16;6274689;22;20417;-80
2022/10/30 09:07:32;;;;;;;23.95;13.80;;;;;;;13.52;100.00;101474.88;6278788;22;20015;-80
2022/10/30 09:09:57;;;;;;;16.13;13.27;;;;;;;13.69;100.00;101487.34;6282115;22;20137;-81
2022/10/30 09:12:22;;;;;;;19.67;13.50;;;;;;;13.87;99.93;101493.53;6271994;22;20004;-86
2022/10/30 09:14:48;;;;;;;22.95;13.68;;;;;;;14.01;99.46;101490.97;6268913;22;20350;-81
2022/10/30 09:17:13;;;;;;;18.00;13.02;;;;;;;14.09;100.00;101487.88;6270931;22;20069;-83
2022/10/30 09:19:38;;;;;;;18.40;13.25;;;;;;;14.29;98.78;101481.38;6270662;22;20329;-84
2022/10/30 09:22:04;;;;;;;16.85;11.75;;;;;;;14.50;97.73;101484.69;6272760;22;20004;-81
2022/10/30 09:24:29;;;;;;;19.05;11.90;;;;;;;14.77;96.19;101483.13;6274432;22;20007;-82
2022/10/30 09:26:54;;;;;;;17.88;11.30;;;;;;;15.00;94.22;101483.56;6276452;22;20086;-83
2022/10/30 09:29:20;;;;;;;19.42;11.60;;;;;;;15.19;94.42;101474.34;6274990;22;20010;-81
2022/10/30 09:31:45;;;;;;;18.55;10.98;;;;;;;15.46;92.47;101470.94;6276279;22;19999;-82
2022/10/30 09:34:11;;;;;;;14.45;10.63;;;;;;;15.71;91.58;101464.09;6273693;22;20008;-82
2022/10/30 09:36:37;;;;;;;19.75;11.20;;;;;;;15.86;90.08;101463.13;6275105;22;20003;-82
2022/10/30 09:39:02;;;;;;;16.73;10.25;;;;;;;16.07;88.65;101472.50;6271070;22;20089;-81
2022/10/30 09:41:38;;;;;;;17.45;9.82;;;;;;;16.14;87.95;101470.31;6274420;22;20035;-81
2022/10/30 09:44:30;;;;;;;16.50;10.20;;;;;;;16.29;87.99;101480.03;6271756;22;20042;-80
2022/10/30 09:47:02;;;;;;;14.07;9.60;;;;;;;16.36;87.51;101473.31;6270167;22;20014;-80
2022/10/30 09:49:56;;;;;;;16.10;9.65;;;;;;;16.57;87.50;101491.69;6269975;22;20099;-82
2022/10/30 09:52:44;;;;;;;14.07;9.55;;;;;;;16.86;86.38;101487.97;6220953;22;20007;-82
2022/10/30 09:55:18;;;;;;;15.35;9.48;;;;;;;16.96;83.93;101500.78;6266686;22;20007;-82
2022/10/30 09:58:02;;;;;;;14.35;8.95;;;;;;;17.17;84.03;101492.13;6270599;22;20057;-79
2022/10/30 10:00:43;;;;;;;13.10;8.95;;;;;;;17.43;83.97;101501.09;6268176;22;20322;-81
2022/10/30 10:03:34;;;;;;;14.88;9.35;;;;;;;17.68;83.17;101496.69;6266678;22;20333;-81
2022/10/30 10:06:01;;;;;;;15.82;8.52;;;;;;;17.66;79.60;101498.63;6270869;22;20004;-81
2022/10/30 10:08:39;;;;;;;12.18;7.30;;;;;;;17.79;79.83;101498.66;6266106;22;20632;-81
2022/10/30 10:11:36;;;;;;;14.23;7.53;;;;;;;17.86;80.75;101499.94;6271432;22;20101;-82
2022/10/30 10:14:23;;;;;;;13.63;8.05;;;;;;;17.73;78.43;101499.06;6269458;22;20022;-81
2022/10/30 10:16:51;;;;;;;14.18;7.10;;;;;;;17.69;77.77;101498.41;6272103;22;19999;-81
2022/10/30 10:19:52;;;;;;;12.70;6.82;;;;;;;17.56;79.14;101498.41;6273780;22;20003;-80
2022/10/30 10:22:25;;;;;;;13.25;7.20;;;;;;;17.41;78.11;101486.03;6273773;22;20051;-81
2022/10/30 10:24:53;;;;;;;13.88;6.93;;;;;;;17.37;77.55;101479.97;6271678;22;20004;-81
2022/10/30 10:27:46;;;;;;;17.10;6.60;;;;;;;17.41;78.24;101484.19;6271669;22;20003;-81
2022/10/30 10:30:22;;;;;;;13.68;6.88;;;;;;;17.37;77.32;101481.81;6271089;22;20495;-82
2022/10/30 10:33:15;;;;;;;12.50;7.05;;;;;;;17.41;78.07;101484.19;6271959;22;20039;-81
2022/10/30 10:36:06;;;;;;;16.10;7.35;;;;;;;17.38;78.10;101478.16;6271415;22;20026;-82
2022/10/30 10:38:47;;;;;;;15.05;7.93;;;;;;;17.50;77.51;101482.69;6273096;22;20142;-82
2022/10/30 10:41:47;;;;;;;15.55;7.68;;;;;;;17.66;77.90;101479.78;6271095;22;20086;-82
2022/10/30 10:44:30;;;;;;;11.85;7.03;;;;;;;17.75;76.32;101471.09;6273241;22;20010;-83
2022/10/30 10:47:03;;;;;;;15.93;8.10;;;;;;;17.76;77.72;101467.41;6274207;22;19996;-96
2022/10/30 10:49:56;;;;;;;13.70;6.35;;;;;;;17.96;78.24;101473.22;6272638;22;20008;-82
2022/10/30 10:52:48;;;;;;;14.00;7.07;;;;;;;18.07;76.71;101478.69;6271883;22;20038;-81
2022/10/30 10:55:19;;;;;;;16.58;7.55;;;;;;;18.06;74.68;101475.16;6271775;22;19992;-81
2022/10/30 10:57:46;;;;;;;13.57;7.75;;;;;;;18.18;75.03;101478.75;6271049;22;20415;-81
2022/10/30 11:00:14;;;;;;;10.55;6.45;;;;;;;18.24;74.15;101483.72;6269845;22;20045;-81
2022/10/30 11:02:46;;;;;;;13.30;7.22;;;;;;;18.26;74.48;101475.50;6270870;22;20058;-81
2022/10/30 11:05:15;;;;;;;13.48;6.43;;;;;;;18.26;74.85;101479.06;6272293;22;20008;-81
2022/10/30 11:07:47;;;;;;;15.27;6.80;;;;;;;18.45;74.15;101470.50;6272316;22;20007;-80
2022/10/30 11:10:14;;;;;;;16.65;6.65;;;;;;;18.57;71.65;101471.44;6270791;22;20015;-80
2022/10/30 11:12:41;;;;;;;10.95;6.07;;;;;;;18.60;71.01;101468.47;6272196;22;20476;-80